sensor_id;sensor_type;location;lat;lon;timestamp;noise_LAeq;noise_LA_min;noise_LA_max;noise_LA01;noise_LA95
66460;Laerm;58055;52.456;4.738;2023-09-19T00:00:01;54.32;52.98;56.37;;
66460;Laerm;58055;52.456;4.738;2023-09-19T00:00:11;54.59;53.15;57.09;;
66460;Laerm;58055;52.456;4.738;2023-09-19T00:00:23;54.54;52.94;55.96;;
66460;Laerm;58055;52.456;4.738;2023-09-19T00:00:33;54.05;52.50;56.34;;
66460;Laerm;58055;52.456;4.738;2023-09-19T00:00:44;54.07;52.00;56.34;;
66460;Laerm;58055;52.456;4.738;2023-09-19T00:00:57;54.33;52.57;57.26;;
66460;Laerm;58055;52.456;4.738;2023-09-19T00:01:08;54.04;52.83;56.88;;
66460;Laerm;58055;52.456;4.738;2023-09-19T00:01:18;54.30;53.06;57.21;;
66460;Laerm;58055;52.456;4.738;2023-09-19T00:01:33;54.61;53.33;58.10;;
66460;Laerm;58055;52.456;4.738;2023-09-19T00:01:44;54.57;53.02;56.84;;
66460;Laerm;58055;52.456;4.738;2023-09-19T00:01:55;54.35;52.98;55.83;;
66460;Laerm;58055;52.456;4.738;2023-09-19T00:02:07;54.50;52.62;57.46;;
66460;Laerm;58055;52.456;4.738;2023-09-19T00:02:18;54.79;53.19;57.16;;
66460;Laerm;58055;52.456;4.738;2023-09-19T00:02:29;54.82;53.57;56.30;;
66460;Laerm;58055;52.456;4.738;2023-09-19T00:02:39;54.95;53.69;57.72;;
66460;Laerm;58055;52.456;4.738;2023-09-19T00:02:53;54.46;53.07;57.24;;
66460;Laerm;58055;52.456;4.738;2023-09-19T00:03:04;54.13;52.65;56.94;;
66460;Laerm;58055;52.456;4.738;2023-09-19T00:03:16;53.96;52.23;57.22;;
66460;Laerm;58055;52.456;4.738;2023-09-19T00:03:26;53.91;52.66;56.15;;
66460;Laerm;58055;52.456;4.738;2023-09-19T00:03:38;54.31;52.99;56.47;;
66460;Laerm;58055;52.456;4.738;2023-09-19T00:03:48;54.37;53.05;57.20;;
66460;Laerm;58055;52.456;4.738;2023-09-19T00:03:59;54.46;52.78;55.97;;
66460;Laerm;58055;52.456;4.738;2023-09-19T00:04:10;53.93;52.46;55.35;;
66460;Laerm;58055;52.456;4.738;2023-09-19T00:04:22;53.86;52.55;55.51;;
66460;Laerm;58055;52.456;4.738;2023-09-19T00:04:38;54.01;52.38;56.86;;
66460;Laerm;58055;52.456;4.738;2023-09-19T00:04:49;53.87;51.96;56.54;;
66460;Laerm;58055;52.456;4.738;2023-09-19T00:05:00;53.66;52.44;55.81;;
66460;Laerm;58055;52.456;4.738;2023-09-19T00:05:14;54.19;52.60;55.86;;
66460;Laerm;58055;52.456;4.738;2023-09-19T00:05:25;54.28;53.10;56.78;;
66460;Laerm;58055;52.456;4.738;2023-09-19T00:05:38;54.47;52.88;57.53;;
66460;Laerm;58055;52.456;4.738;2023-09-19T00:05:48;54.46;53.12;57.76;;
66460;Laerm;58055;52.456;4.738;2023-09-19T00:06:00;54.59;52.91;57.87;;
66460;Laerm;58055;52.456;4.738;2023-09-19T00:06:11;54.38;52.97;57.24;;
66460;Laerm;58055;52.456;4.738;2023-09-19T00:06:28;54.31;52.44;57.28;;
66460;Laerm;58055;52.456;4.738;2023-09-19T00:06:41;53.96;51.94;58.48;;
66460;Laerm;58055;52.456;4.738;2023-09-19T00:06:52;54.03;52.53;55.60;;
66460;Laerm;58055;52.456;4.738;2023-09-19T00:07:04;53.99;52.50;55.64;;
66460;Laerm;58055;52.456;4.738;2023-09-19T00:07:14;54.26;53.01;56.52;;
66460;Laerm;58055;52.456;4.738;2023-09-19T00:07:26;54.44;53.07;56.13;;
66460;Laerm;58055;52.456;4.738;2023-09-19T00:07:36;53.76;51.41;55.86;;
66460;Laerm;58055;52.456;4.738;2023-09-19T00:07:46;52.45;50.92;54.83;;
66460;Laerm;58055;52.456;4.738;2023-09-19T00:07:57;52.43;50.32;54.83;;
66460;Laerm;58055;52.456;4.738;2023-09-19T00:08:10;52.31;49.81;55.33;;
66460;Laerm;58055;52.456;4.738;2023-09-19T00:08:23;52.60;50.42;55.79;;
66460;Laerm;58055;52.456;4.738;2023-09-19T00:08:33;52.62;50.88;55.17;;
66460;Laerm;58055;52.456;4.738;2023-09-19T00:08:44;53.56;51.98;57.04;;
66460;Laerm;58055;52.456;4.738;2023-09-19T00:08:54;53.07;51.47;55.41;;
66460;Laerm;58055;52.456;4.738;2023-09-19T00:09:04;53.03;51.21;54.85;;
66460;Laerm;58055;52.456;4.738;2023-09-19T00:09:15;53.04;50.76;54.59;;
66460;Laerm;58055;52.456;4.738;2023-09-19T00:09:25;53.37;51.57;55.18;;
66460;Laerm;58055;52.456;4.738;2023-09-19T00:09:38;53.82;52.20;55.74;;
66460;Laerm;58055;52.456;4.738;2023-09-19T00:09:48;53.84;51.19;56.34;;
66460;Laerm;58055;52.456;4.738;2023-09-19T00:09:58;54.03;52.31;57.71;;
66460;Laerm;58055;52.456;4.738;2023-09-19T00:10:09;53.66;51.47;55.87;;
66460;Laerm;58055;52.456;4.738;2023-09-19T00:10:22;53.46;51.59;55.85;;
66460;Laerm;58055;52.456;4.738;2023-09-19T00:10:34;53.97;51.25;56.74;;
66460;Laerm;58055;52.456;4.738;2023-09-19T00:10:49;54.12;51.50;59.60;;
66460;Laerm;58055;52.456;4.738;2023-09-19T00:11:00;52.65;50.18;56.82;;
66460;Laerm;58055;52.456;4.738;2023-09-19T00:11:15;52.82;50.77;54.80;;
66460;Laerm;58055;52.456;4.738;2023-09-19T00:11:25;52.66;50.86;57.60;;
66460;Laerm;58055;52.456;4.738;2023-09-19T00:11:37;52.95;50.81;56.82;;
66460;Laerm;58055;52.456;4.738;2023-09-19T00:11:49;53.21;51.17;56.53;;
66460;Laerm;58055;52.456;4.738;2023-09-19T00:11:59;52.81;51.04;57.98;;
66460;Laerm;58055;52.456;4.738;2023-09-19T00:12:09;53.10;50.85;57.32;;
66460;Laerm;58055;52.456;4.738;2023-09-19T00:12:20;52.74;50.04;56.87;;
66460;Laerm;58055;52.456;4.738;2023-09-19T00:12:30;52.67;50.78;57.51;;
66460;Laerm;58055;52.456;4.738;2023-09-19T00:12:42;52.64;50.05;57.43;;
66460;Laerm;58055;52.456;4.738;2023-09-19T00:12:55;53.13;50.82;56.74;;
66460;Laerm;58055;52.456;4.738;2023-09-19T00:13:06;52.64;50.88;57.53;;
66460;Laerm;58055;52.456;4.738;2023-09-19T00:13:17;52.82;50.72;55.05;;
66460;Laerm;58055;52.456;4.738;2023-09-19T00:13:28;53.14;51.11;56.32;;
66460;Laerm;58055;52.456;4.738;2023-09-19T00:13:40;53.00;50.71;56.00;;
66460;Laerm;58055;52.456;4.738;2023-09-19T00:13:51;53.43;51.41;57.36;;
66460;Laerm;58055;52.456;4.738;2023-09-19T00:14:01;52.62;50.78;56.77;;
66460;Laerm;58055;52.456;4.738;2023-09-19T00:14:12;52.84;50.96;55.72;;
66460;Laerm;58055;52.456;4.738;2023-09-19T00:14:24;53.07;50.61;58.55;;
66460;Laerm;58055;52.456;4.738;2023-09-19T00:14:35;53.41;50.91;57.12;;
66460;Laerm;58055;52.456;4.738;2023-09-19T00:14:45;53.18;50.99;56.95;;
66460;Laerm;58055;52.456;4.738;2023-09-19T00:14:56;53.25;51.53;56.35;;
66460;Laerm;58055;52.456;4.738;2023-09-19T00:15:07;53.20;51.09;57.56;;
66460;Laerm;58055;52.456;4.738;2023-09-19T00:15:17;52.89;50.87;58.82;;
66460;Laerm;58055;52.456;4.738;2023-09-19T00:15:27;53.37;51.20;55.95;;
66460;Laerm;58055;52.456;4.738;2023-09-19T00:15:42;54.06;51.91;57.07;;
66460;Laerm;58055;52.456;4.738;2023-09-19T00:15:52;53.35;51.36;55.42;;
66460;Laerm;58055;52.456;4.738;2023-09-19T00:16:11;53.09;51.12;55.57;;
66460;Laerm;58055;52.456;4.738;2023-09-19T00:16:22;53.52;51.44;57.09;;
66460;Laerm;58055;52.456;4.738;2023-09-19T00:16:33;53.55;51.46;56.32;;
66460;Laerm;58055;52.456;4.738;2023-09-19T00:16:43;54.13;52.70;58.10;;
66460;Laerm;58055;52.456;4.738;2023-09-19T00:16:54;53.86;51.92;55.90;;
66460;Laerm;58055;52.456;4.738;2023-09-19T00:17:04;53.27;51.66;57.10;;
66460;Laerm;58055;52.456;4.738;2023-09-19T00:17:18;53.55;51.50;57.24;;
66460;Laerm;58055;52.456;4.738;2023-09-19T00:17:29;53.16;51.36;55.83;;
66460;Laerm;58055;52.456;4.738;2023-09-19T00:17:41;53.18;51.59;54.96;;
66460;Laerm;58055;52.456;4.738;2023-09-19T00:17:53;53.11;51.24;55.03;;
66460;Laerm;58055;52.456;4.738;2023-09-19T00:18:04;52.84;50.93;55.64;;
66460;Laerm;58055;52.456;4.738;2023-09-19T00:18:19;53.14;51.47;55.57;;
66460;Laerm;58055;52.456;4.738;2023-09-19T00:18:38;53.29;51.41;55.84;;
66460;Laerm;58055;52.456;4.738;2023-09-19T00:18:48;53.60;51.01;56.76;;
66460;Laerm;58055;52.456;4.738;2023-09-19T00:18:59;53.49;51.57;57.07;;
66460;Laerm;58055;52.456;4.738;2023-09-19T00:19:13;53.36;50.97;57.35;;
66460;Laerm;58055;52.456;4.738;2023-09-19T00:19:26;53.54;50.60;56.90;;
66460;Laerm;58055;52.456;4.738;2023-09-19T00:19:36;53.50;51.29;55.84;;
66460;Laerm;58055;52.456;4.738;2023-09-19T00:19:47;53.84;51.50;55.60;;
66460;Laerm;58055;52.456;4.738;2023-09-19T00:19:58;53.62;51.39;55.84;;
66460;Laerm;58055;52.456;4.738;2023-09-19T00:20:09;53.46;50.91;55.41;;
66460;Laerm;58055;52.456;4.738;2023-09-19T00:20:22;53.35;51.01;57.23;;
66460;Laerm;58055;52.456;4.738;2023-09-19T00:20:36;53.69;51.74;56.03;;
66460;Laerm;58055;52.456;4.738;2023-09-19T00:20:47;53.69;51.40;57.20;;
66460;Laerm;58055;52.456;4.738;2023-09-19T00:20:58;53.93;51.80;55.78;;
66460;Laerm;58055;52.456;4.738;2023-09-19T00:21:08;53.94;52.11;60.02;;
66460;Laerm;58055;52.456;4.738;2023-09-19T00:21:20;54.16;51.43;57.54;;
66460;Laerm;58055;52.456;4.738;2023-09-19T00:21:31;54.53;52.04;59.50;;
66460;Laerm;58055;52.456;4.738;2023-09-19T00:21:41;54.49;51.99;56.67;;
66460;Laerm;58055;52.456;4.738;2023-09-19T00:21:52;53.83;51.91;60.59;;
66460;Laerm;58055;52.456;4.738;2023-09-19T00:22:03;53.77;51.79;55.58;;
66460;Laerm;58055;52.456;4.738;2023-09-19T00:22:14;54.40;52.07;56.46;;
66460;Laerm;58055;52.456;4.738;2023-09-19T00:22:25;53.88;51.24;57.57;;
66460;Laerm;58055;52.456;4.738;2023-09-19T00:22:38;52.81;51.19;55.08;;
66460;Laerm;58055;52.456;4.738;2023-09-19T00:22:49;53.10;51.03;55.56;;
66460;Laerm;58055;52.456;4.738;2023-09-19T00:23:03;53.59;51.44;56.64;;
66460;Laerm;58055;52.456;4.738;2023-09-19T00:23:18;53.38;51.69;56.87;;
66460;Laerm;58055;52.456;4.738;2023-09-19T00:23:29;53.63;51.60;55.30;;
66460;Laerm;58055;52.456;4.738;2023-09-19T00:23:39;53.66;51.70;56.74;;
66460;Laerm;58055;52.456;4.738;2023-09-19T00:23:52;53.58;51.68;56.12;;
66460;Laerm;58055;52.456;4.738;2023-09-19T00:24:03;53.52;51.98;56.17;;
66460;Laerm;58055;52.456;4.738;2023-09-19T00:24:14;53.48;51.45;55.75;;
66460;Laerm;58055;52.456;4.738;2023-09-19T00:24:25;53.83;51.98;55.88;;
66460;Laerm;58055;52.456;4.738;2023-09-19T00:24:37;53.88;52.31;56.02;;
66460;Laerm;58055;52.456;4.738;2023-09-19T00:24:48;54.09;52.18;56.34;;
66460;Laerm;58055;52.456;4.738;2023-09-19T00:24:58;53.99;52.52;55.85;;
66460;Laerm;58055;52.456;4.738;2023-09-19T00:25:08;54.44;52.11;56.26;;
66460;Laerm;58055;52.456;4.738;2023-09-19T00:25:20;53.88;51.92;56.21;;
66460;Laerm;58055;52.456;4.738;2023-09-19T00:25:30;53.76;52.10;57.07;;
66460;Laerm;58055;52.456;4.738;2023-09-19T00:25:42;53.76;52.05;56.42;;
66460;Laerm;58055;52.456;4.738;2023-09-19T00:25:52;53.99;51.84;56.53;;
66460;Laerm;58055;52.456;4.738;2023-09-19T00:26:07;53.58;51.76;57.05;;
66460;Laerm;58055;52.456;4.738;2023-09-19T00:26:17;53.55;51.13;55.53;;
66460;Laerm;58055;52.456;4.738;2023-09-19T00:26:28;53.38;51.49;55.44;;
66460;Laerm;58055;52.456;4.738;2023-09-19T00:26:40;53.34;51.60;55.37;;
66460;Laerm;58055;52.456;4.738;2023-09-19T00:26:51;53.10;51.41;57.25;;
66460;Laerm;58055;52.456;4.738;2023-09-19T00:27:01;53.00;51.34;57.41;;
66460;Laerm;58055;52.456;4.738;2023-09-19T00:27:11;52.85;50.75;56.57;;
66460;Laerm;58055;52.456;4.738;2023-09-19T00:27:21;52.68;50.95;54.83;;
66460;Laerm;58055;52.456;4.738;2023-09-19T00:27:32;52.76;50.73;55.00;;
66460;Laerm;58055;52.456;4.738;2023-09-19T00:27:43;52.90;50.80;57.65;;
66460;Laerm;58055;52.456;4.738;2023-09-19T00:27:55;53.16;50.95;55.07;;
66460;Laerm;58055;52.456;4.738;2023-09-19T00:28:05;53.71;50.83;57.68;;
66460;Laerm;58055;52.456;4.738;2023-09-19T00:28:17;53.81;49.99;57.16;;
66460;Laerm;58055;52.456;4.738;2023-09-19T00:28:29;53.69;51.28;56.58;;
66460;Laerm;58055;52.456;4.738;2023-09-19T00:28:40;53.86;51.55;57.34;;
66460;Laerm;58055;52.456;4.738;2023-09-19T00:28:52;53.77;51.66;55.77;;
66460;Laerm;58055;52.456;4.738;2023-09-19T00:29:03;53.71;51.10;56.04;;
66460;Laerm;58055;52.456;4.738;2023-09-19T00:29:13;53.90;51.69;56.68;;
66460;Laerm;58055;52.456;4.738;2023-09-19T00:29:26;53.77;52.21;56.06;;
66460;Laerm;58055;52.456;4.738;2023-09-19T00:29:39;53.64;51.76;58.03;;
66460;Laerm;58055;52.456;4.738;2023-09-19T00:29:49;53.66;51.12;58.23;;
66460;Laerm;58055;52.456;4.738;2023-09-19T00:29:59;50.55;47.70;54.73;;
66460;Laerm;58055;52.456;4.738;2023-09-19T00:30:11;49.96;48.00;52.44;;
66460;Laerm;58055;52.456;4.738;2023-09-19T00:30:25;49.56;47.88;51.35;;
66460;Laerm;58055;52.456;4.738;2023-09-19T00:30:36;49.63;47.87;51.59;;
66460;Laerm;58055;52.456;4.738;2023-09-19T00:30:48;49.84;48.02;51.77;;
66460;Laerm;58055;52.456;4.738;2023-09-19T00:31:01;50.06;48.57;53.03;;
66460;Laerm;58055;52.456;4.738;2023-09-19T00:31:11;50.07;48.57;52.27;;
66460;Laerm;58055;52.456;4.738;2023-09-19T00:31:22;50.37;48.78;52.86;;
66460;Laerm;58055;52.456;4.738;2023-09-19T00:31:35;50.21;48.56;53.11;;
66460;Laerm;58055;52.456;4.738;2023-09-19T00:31:47;50.09;48.83;53.45;;
66460;Laerm;58055;52.456;4.738;2023-09-19T00:31:58;50.03;48.11;52.26;;
66460;Laerm;58055;52.456;4.738;2023-09-19T00:32:09;49.94;48.13;51.92;;
66460;Laerm;58055;52.456;4.738;2023-09-19T00:32:19;50.53;48.59;53.37;;
66460;Laerm;58055;52.456;4.738;2023-09-19T00:32:29;50.12;48.34;54.54;;
66460;Laerm;58055;52.456;4.738;2023-09-19T00:32:42;49.84;48.27;51.75;;
66460;Laerm;58055;52.456;4.738;2023-09-19T00:32:52;49.97;48.16;52.20;;
66460;Laerm;58055;52.456;4.738;2023-09-19T00:33:03;50.01;48.23;52.16;;
66460;Laerm;58055;52.456;4.738;2023-09-19T00:33:16;50.29;48.22;57.23;;
66460;Laerm;58055;52.456;4.738;2023-09-19T00:33:26;49.74;47.81;51.98;;
66460;Laerm;58055;52.456;4.738;2023-09-19T00:33:36;49.89;48.15;56.75;;
66460;Laerm;58055;52.456;4.738;2023-09-19T00:33:47;49.60;47.69;52.62;;
66460;Laerm;58055;52.456;4.738;2023-09-19T00:33:58;49.62;47.67;51.78;;
66460;Laerm;58055;52.456;4.738;2023-09-19T00:34:10;49.62;47.38;52.51;;
66460;Laerm;58055;52.456;4.738;2023-09-19T00:34:20;49.41;47.61;52.38;;
66460;Laerm;58055;52.456;4.738;2023-09-19T00:34:31;49.40;47.62;53.57;;
66460;Laerm;58055;52.456;4.738;2023-09-19T00:34:44;49.36;47.54;53.46;;
66460;Laerm;58055;52.456;4.738;2023-09-19T00:34:54;49.33;47.48;54.37;;
66460;Laerm;58055;52.456;4.738;2023-09-19T00:35:04;49.54;47.47;52.66;;
66460;Laerm;58055;52.456;4.738;2023-09-19T00:35:15;49.21;47.32;52.79;;
66460;Laerm;58055;52.456;4.738;2023-09-19T00:35:25;49.29;47.35;52.05;;
66460;Laerm;58055;52.456;4.738;2023-09-19T00:35:35;49.56;47.59;52.53;;
66460;Laerm;58055;52.456;4.738;2023-09-19T00:35:47;49.51;47.53;52.38;;
66460;Laerm;58055;52.456;4.738;2023-09-19T00:35:57;49.53;47.92;52.66;;
66460;Laerm;58055;52.456;4.738;2023-09-19T00:36:08;49.60;47.92;52.60;;
66460;Laerm;58055;52.456;4.738;2023-09-19T00:36:18;50.01;48.28;53.47;;
66460;Laerm;58055;52.456;4.738;2023-09-19T00:36:28;49.72;47.48;52.06;;
66460;Laerm;58055;52.456;4.738;2023-09-19T00:36:39;50.27;47.71;53.43;;
66460;Laerm;58055;52.456;4.738;2023-09-19T00:36:50;49.62;47.77;52.04;;
66460;Laerm;58055;52.456;4.738;2023-09-19T00:37:03;49.73;47.93;52.79;;
66460;Laerm;58055;52.456;4.738;2023-09-19T00:37:13;49.53;47.47;53.68;;
66460;Laerm;58055;52.456;4.738;2023-09-19T00:37:24;50.34;47.80;53.72;;
66460;Laerm;58055;52.456;4.738;2023-09-19T00:37:34;50.96;48.75;54.82;;
66460;Laerm;58055;52.456;4.738;2023-09-19T00:37:45;50.80;48.71;53.47;;
66460;Laerm;58055;52.456;4.738;2023-09-19T00:37:56;50.71;47.99;52.56;;
66460;Laerm;58055;52.456;4.738;2023-09-19T00:38:06;50.43;47.69;53.19;;
66460;Laerm;58055;52.456;4.738;2023-09-19T00:38:17;50.75;47.70;55.00;;
66460;Laerm;58055;52.456;4.738;2023-09-19T00:38:31;50.56;47.74;53.22;;
66460;Laerm;58055;52.456;4.738;2023-09-19T00:38:41;50.44;48.14;53.10;;
66460;Laerm;58055;52.456;4.738;2023-09-19T00:38:54;50.56;48.26;53.09;;
66460;Laerm;58055;52.456;4.738;2023-09-19T00:39:05;49.85;47.44;51.65;;
66460;Laerm;58055;52.456;4.738;2023-09-19T00:39:15;49.67;47.90;52.55;;
66460;Laerm;58055;52.456;4.738;2023-09-19T00:39:26;49.42;47.47;53.86;;
66460;Laerm;58055;52.456;4.738;2023-09-19T00:39:38;49.67;47.33;52.09;;
66460;Laerm;58055;52.456;4.738;2023-09-19T00:39:48;49.75;47.85;52.45;;
66460;Laerm;58055;52.456;4.738;2023-09-19T00:39:58;49.38;47.65;52.49;;
66460;Laerm;58055;52.456;4.738;2023-09-19T00:40:09;49.40;47.74;51.76;;
66460;Laerm;58055;52.456;4.738;2023-09-19T00:40:25;49.31;47.43;51.82;;
66460;Laerm;58055;52.456;4.738;2023-09-19T00:40:36;49.30;47.11;52.47;;
66460;Laerm;58055;52.456;4.738;2023-09-19T00:40:47;49.39;47.36;52.24;;
66460;Laerm;58055;52.456;4.738;2023-09-19T00:40:57;49.41;47.46;55.51;;
66460;Laerm;58055;52.456;4.738;2023-09-19T00:41:09;49.03;47.01;51.93;;
66460;Laerm;58055;52.456;4.738;2023-09-19T00:41:19;48.78;47.01;51.58;;
66460;Laerm;58055;52.456;4.738;2023-09-19T00:41:33;49.22;47.19;52.06;;
66460;Laerm;58055;52.456;4.738;2023-09-19T00:41:45;49.58;46.85;53.75;;
66460;Laerm;58055;52.456;4.738;2023-09-19T00:41:56;49.08;47.03;52.27;;
66460;Laerm;58055;52.456;4.738;2023-09-19T00:42:06;49.32;47.16;52.52;;
66460;Laerm;58055;52.456;4.738;2023-09-19T00:42:21;49.23;46.99;52.05;;
66460;Laerm;58055;52.456;4.738;2023-09-19T00:42:31;49.29;47.51;52.85;;
66460;Laerm;58055;52.456;4.738;2023-09-19T00:42:42;49.33;47.19;52.93;;
66460;Laerm;58055;52.456;4.738;2023-09-19T00:42:52;49.51;47.19;51.98;;
66460;Laerm;58055;52.456;4.738;2023-09-19T00:43:07;49.18;47.19;52.55;;
66460;Laerm;58055;52.456;4.738;2023-09-19T00:43:18;49.30;47.07;52.12;;
66460;Laerm;58055;52.456;4.738;2023-09-19T00:43:28;49.15;47.40;53.31;;
66460;Laerm;58055;52.456;4.738;2023-09-19T00:43:39;49.01;47.01;51.38;;
66460;Laerm;58055;52.456;4.738;2023-09-19T00:43:50;49.07;47.24;52.63;;
66460;Laerm;58055;52.456;4.738;2023-09-19T00:44:00;49.13;47.41;53.01;;
66460;Laerm;58055;52.456;4.738;2023-09-19T00:44:12;49.26;46.95;52.74;;
66460;Laerm;58055;52.456;4.738;2023-09-19T00:44:22;49.25;47.38;54.03;;
66460;Laerm;58055;52.456;4.738;2023-09-19T00:44:33;49.21;47.39;54.38;;
66460;Laerm;58055;52.456;4.738;2023-09-19T00:44:44;49.09;47.25;53.24;;
66460;Laerm;58055;52.456;4.738;2023-09-19T00:44:54;49.23;47.11;52.13;;
66460;Laerm;58055;52.456;4.738;2023-09-19T00:45:05;49.48;47.51;56.36;;
66460;Laerm;58055;52.456;4.738;2023-09-19T00:45:16;49.15;47.23;51.83;;
66460;Laerm;58055;52.456;4.738;2023-09-19T00:45:27;49.40;47.19;53.67;;
66460;Laerm;58055;52.456;4.738;2023-09-19T00:45:38;49.30;47.29;51.96;;
66460;Laerm;58055;52.456;4.738;2023-09-19T00:45:50;49.30;47.32;52.24;;
66460;Laerm;58055;52.456;4.738;2023-09-19T00:46:01;49.14;47.05;52.09;;
66460;Laerm;58055;52.456;4.738;2023-09-19T00:46:16;49.17;47.19;53.12;;
66460;Laerm;58055;52.456;4.738;2023-09-19T00:46:26;49.01;47.29;52.28;;
66460;Laerm;58055;52.456;4.738;2023-09-19T00:46:37;49.18;47.26;52.69;;
66460;Laerm;58055;52.456;4.738;2023-09-19T00:46:47;49.15;47.45;52.08;;
66460;Laerm;58055;52.456;4.738;2023-09-19T00:46:59;49.23;46.98;52.71;;
66460;Laerm;58055;52.456;4.738;2023-09-19T00:47:09;49.48;47.18;52.10;;
66460;Laerm;58055;52.456;4.738;2023-09-19T00:47:25;49.34;47.05;52.04;;
66460;Laerm;58055;52.456;4.738;2023-09-19T00:47:35;49.39;46.88;53.83;;
66460;Laerm;58055;52.456;4.738;2023-09-19T00:47:47;49.47;47.52;52.20;;
66460;Laerm;58055;52.456;4.738;2023-09-19T00:48:01;49.61;47.30;53.26;;
66460;Laerm;58055;52.456;4.738;2023-09-19T00:48:14;52.67;47.53;59.83;;
66460;Laerm;58055;52.456;4.738;2023-09-19T00:48:24;54.51;52.51;57.70;;
66460;Laerm;58055;52.456;4.738;2023-09-19T00:48:40;54.70;52.44;58.32;;
66460;Laerm;58055;52.456;4.738;2023-09-19T00:48:54;54.35;51.85;58.52;;
66460;Laerm;58055;52.456;4.738;2023-09-19T00:49:04;54.73;51.53;59.04;;
66460;Laerm;58055;52.456;4.738;2023-09-19T00:49:15;54.52;52.30;58.07;;
66460;Laerm;58055;52.456;4.738;2023-09-19T00:49:25;54.47;52.31;58.26;;
66460;Laerm;58055;52.456;4.738;2023-09-19T00:49:36;54.92;52.96;59.00;;
66460;Laerm;58055;52.456;4.738;2023-09-19T00:49:48;55.01;52.21;58.81;;
66460;Laerm;58055;52.456;4.738;2023-09-19T00:50:03;54.56;51.80;58.23;;
66460;Laerm;58055;52.456;4.738;2023-09-19T00:50:15;54.57;52.09;59.26;;
66460;Laerm;58055;52.456;4.738;2023-09-19T00:50:27;54.12;51.61;58.44;;
66460;Laerm;58055;52.456;4.738;2023-09-19T00:50:38;54.94;52.01;59.38;;
66460;Laerm;58055;52.456;4.738;2023-09-19T00:50:51;54.52;51.33;58.49;;
66460;Laerm;58055;52.456;4.738;2023-09-19T00:51:03;54.71;52.03;58.67;;
66460;Laerm;58055;52.456;4.738;2023-09-19T00:51:14;54.66;52.04;58.90;;
66460;Laerm;58055;52.456;4.738;2023-09-19T00:51:28;54.62;51.78;59.73;;
66460;Laerm;58055;52.456;4.738;2023-09-19T00:51:39;54.69;51.86;57.85;;
66460;Laerm;58055;52.456;4.738;2023-09-19T00:51:55;55.19;52.19;58.93;;
66460;Laerm;58055;52.456;4.738;2023-09-19T00:52:05;55.17;52.32;59.11;;
66460;Laerm;58055;52.456;4.738;2023-09-19T00:52:16;56.05;53.90;59.99;;
66460;Laerm;58055;52.456;4.738;2023-09-19T00:52:30;55.86;53.20;59.45;;
66460;Laerm;58055;52.456;4.738;2023-09-19T00:52:42;56.32;53.72;60.49;;
66460;Laerm;58055;52.456;4.738;2023-09-19T00:52:55;56.21;53.45;58.89;;
66460;Laerm;58055;52.456;4.738;2023-09-19T00:53:06;56.79;53.87;61.00;;
66460;Laerm;58055;52.456;4.738;2023-09-19T00:53:19;56.42;53.69;59.53;;
66460;Laerm;58055;52.456;4.738;2023-09-19T00:53:30;56.09;53.26;60.33;;
66460;Laerm;58055;52.456;4.738;2023-09-19T00:53:40;55.71;52.73;59.19;;
66460;Laerm;58055;52.456;4.738;2023-09-19T00:53:56;56.00;53.31;59.19;;
66460;Laerm;58055;52.456;4.738;2023-09-19T00:54:06;56.15;53.71;60.49;;
66460;Laerm;58055;52.456;4.738;2023-09-19T00:54:17;55.51;52.63;59.95;;
66460;Laerm;58055;52.456;4.738;2023-09-19T00:54:28;55.41;53.12;58.65;;
66460;Laerm;58055;52.456;4.738;2023-09-19T00:54:39;55.48;52.72;59.43;;
66460;Laerm;58055;52.456;4.738;2023-09-19T00:54:49;55.45;52.83;60.14;;
66460;Laerm;58055;52.456;4.738;2023-09-19T00:55:00;55.76;53.42;59.30;;
66460;Laerm;58055;52.456;4.738;2023-09-19T00:55:12;55.64;53.36;59.74;;
66460;Laerm;58055;52.456;4.738;2023-09-19T00:55:25;56.10;53.30;60.05;;
66460;Laerm;58055;52.456;4.738;2023-09-19T00:55:35;56.63;53.76;60.21;;
66460;Laerm;58055;52.456;4.738;2023-09-19T00:55:47;56.93;53.92;60.80;;
66460;Laerm;58055;52.456;4.738;2023-09-19T00:55:58;57.60;54.31;61.84;;
66460;Laerm;58055;52.456;4.738;2023-09-19T00:56:08;56.33;53.05;60.66;;
66460;Laerm;58055;52.456;4.738;2023-09-19T00:56:19;56.83;52.67;63.20;;
66460;Laerm;58055;52.456;4.738;2023-09-19T00:56:30;56.52;52.17;60.58;;
66460;Laerm;58055;52.456;4.738;2023-09-19T00:56:41;56.34;51.14;61.24;;
66460;Laerm;58055;52.456;4.738;2023-09-19T00:56:52;56.72;51.47;61.08;;
66460;Laerm;58055;52.456;4.738;2023-09-19T00:57:04;56.84;51.65;61.17;;
66460;Laerm;58055;52.456;4.738;2023-09-19T00:57:15;55.45;50.88;60.39;;
66460;Laerm;58055;52.456;4.738;2023-09-19T00:57:25;54.51;50.27;60.51;;
66460;Laerm;58055;52.456;4.738;2023-09-19T00:57:36;54.72;50.02;59.62;;
66460;Laerm;58055;52.456;4.738;2023-09-19T00:57:48;56.22;50.61;60.43;;
66460;Laerm;58055;52.456;4.738;2023-09-19T00:58:00;56.01;50.46;59.83;;
66460;Laerm;58055;52.456;4.738;2023-09-19T00:58:10;54.72;48.73;59.44;;
66460;Laerm;58055;52.456;4.738;2023-09-19T00:58:21;54.25;48.74;58.50;;
66460;Laerm;58055;52.456;4.738;2023-09-19T00:58:31;55.77;51.40;60.44;;
66460;Laerm;58055;52.456;4.738;2023-09-19T00:58:44;55.91;52.81;60.78;;
66460;Laerm;58055;52.456;4.738;2023-09-19T00:58:55;56.01;49.65;62.36;;
66460;Laerm;58055;52.456;4.738;2023-09-19T00:59:05;52.94;48.73;57.19;;
66460;Laerm;58055;52.456;4.738;2023-09-19T00:59:16;52.33;48.55;56.42;;
66460;Laerm;58055;52.456;4.738;2023-09-19T00:59:27;51.65;48.32;55.78;;
66460;Laerm;58055;52.456;4.738;2023-09-19T00:59:37;52.10;48.32;56.26;;
66460;Laerm;58055;52.456;4.738;2023-09-19T00:59:48;52.13;48.25;56.37;;
66460;Laerm;58055;52.456;4.738;2023-09-19T01:00:00;52.08;48.11;56.70;;
66460;Laerm;58055;52.456;4.738;2023-09-19T01:00:15;53.60;48.99;61.76;;
66460;Laerm;58055;52.456;4.738;2023-09-19T01:00:26;53.16;50.56;59.29;;
66460;Laerm;58055;52.456;4.738;2023-09-19T01:00:36;53.69;50.82;58.33;;
66460;Laerm;58055;52.456;4.738;2023-09-19T01:00:48;53.32;50.82;57.57;;
66460;Laerm;58055;52.456;4.738;2023-09-19T01:00:58;53.42;50.97;58.27;;
66460;Laerm;58055;52.456;4.738;2023-09-19T01:01:09;52.47;50.53;58.48;;
66460;Laerm;58055;52.456;4.738;2023-09-19T01:01:21;52.27;50.43;54.40;;
66460;Laerm;58055;52.456;4.738;2023-09-19T01:01:32;52.34;50.30;57.41;;
66460;Laerm;58055;52.456;4.738;2023-09-19T01:01:42;52.55;50.55;55.60;;
66460;Laerm;58055;52.456;4.738;2023-09-19T01:01:56;52.63;49.84;54.66;;
66460;Laerm;58055;52.456;4.738;2023-09-19T01:02:06;54.13;50.48;58.62;;
66460;Laerm;58055;52.456;4.738;2023-09-19T01:02:16;55.93;53.24;58.74;;
66460;Laerm;58055;52.456;4.738;2023-09-19T01:02:26;56.02;54.00;58.77;;
66460;Laerm;58055;52.456;4.738;2023-09-19T01:02:38;55.92;53.63;57.78;;
66460;Laerm;58055;52.456;4.738;2023-09-19T01:02:48;55.58;53.69;58.01;;
66460;Laerm;58055;52.456;4.738;2023-09-19T01:02:58;55.33;53.63;57.17;;
66460;Laerm;58055;52.456;4.738;2023-09-19T01:03:09;54.69;52.88;57.72;;
66460;Laerm;58055;52.456;4.738;2023-09-19T01:03:20;54.43;52.55;56.10;;
66460;Laerm;58055;52.456;4.738;2023-09-19T01:03:30;55.04;53.29;57.28;;
66460;Laerm;58055;52.456;4.738;2023-09-19T01:03:41;55.18;52.94;57.11;;
66460;Laerm;58055;52.456;4.738;2023-09-19T01:03:51;54.75;52.93;56.61;;